createdAt,value
2022-08-04T00:00:42.499Z,19.08
2022-08-04T00:03:28.516Z,20.85
2022-08-04T00:06:14.810Z,21.40
2022-08-04T00:08:48.904Z,19.35
2022-08-04T00:11:24.230Z,19.65
2022-08-04T00:14:02.899Z,26.27
2022-08-04T00:16:37.723Z,23.63
2022-08-04T00:19:32.029Z,19.83
2022-08-04T00:22:06.591Z,17.95
2022-08-04T00:24:35.945Z,17.30
2022-08-04T00:27:04.420Z,20.08
2022-08-04T00:29:31.897Z,21.17
2022-08-04T00:31:59.636Z,20.00
2022-08-04T00:34:28.323Z,22.02
2022-08-04T00:36:57.040Z,20.35
2022-08-04T00:39:25.716Z,20.23
2022-08-04T00:42:13.741Z,20.83
2022-08-04T00:44:59.417Z,21.85
2022-08-04T00:47:54.191Z,21.80
2022-08-04T00:50:30.810Z,19.88
2022-08-04T00:53:22.817Z,19.33
2022-08-04T00:56:07.668Z,26.88
2022-08-04T00:58:47.520Z,21.27
2022-08-04T01:01:39.166Z,23.98
2022-08-04T01:04:30.437Z,19.67
2022-08-04T01:07:11.591Z,20.05
2022-08-04T01:09:56.724Z,15.77
2022-08-04T01:12:54.651Z,16.55
2022-08-04T01:15:53.763Z,20.35
2022-08-04T01:19:00.302Z,23.27
2022-08-04T01:21:30.454Z,18.85
2022-08-04T01:27:08.907Z,15.68
2022-08-04T01:29:58.062Z,21.05
2022-08-04T01:32:54.764Z,22.67
2022-08-04T01:35:46.729Z,19.27
2022-08-04T01:38:30.141Z,17.30
2022-08-04T01:41:02.685Z,23.27
2022-08-04T01:43:34.109Z,20.00
2022-08-04T01:46:05.457Z,19.35
2022-08-04T01:48:38.608Z,19.20
2022-08-04T01:51:09.354Z,16.65
2022-08-04T01:53:40.246Z,18.63
2022-08-04T01:56:10.060Z,17.48
2022-08-04T01:58:40.487Z,15.27
2022-08-04T02:01:13.412Z,15.52
2022-08-04T02:04:20.548Z,16.67
2022-08-04T02:06:42.190Z,25.42
2022-08-04T02:09:27.158Z,18.02
2022-08-04T02:12:27.065Z,22.58
2022-08-04T02:15:38.148Z,20.40
2022-08-04T02:18:23.175Z,23.30
2022-08-04T02:20:58.163Z,32.22
2022-08-04T02:23:32.755Z,34.30
2022-08-04T02:26:05.421Z,18.63
2022-08-04T02:28:49.535Z,28.55
2022-08-04T02:31:49.770Z,22.58
2022-08-04T02:34:48.887Z,17.10
2022-08-04T02:40:38.304Z,22.05
2022-08-04T02:43:10.332Z,42.28
2022-08-04T02:45:43.636Z,14.88
2022-08-04T02:48:30.386Z,18.52
2022-08-04T02:51:04.224Z,15.80
2022-08-04T02:53:38.421Z,17.10
2022-08-04T02:56:16.006Z,17.10
2022-08-04T02:59:02.656Z,21.30
2022-08-04T03:04:57.619Z,51.10
2022-08-04T03:07:50.350Z,19.42
2022-08-04T03:10:56.064Z,19.65
2022-08-04T03:13:29.455Z,17.95
2022-08-04T03:16:15.540Z,18.40
2022-08-04T03:22:23.939Z,16.95
2022-08-04T03:25:22.961Z,18.58
2022-08-04T03:28:32.826Z,19.75
2022-08-04T03:31:16.446Z,16.67
2022-08-04T03:34:30.644Z,14.65
2022-08-04T03:38:01.030Z,16.48
2022-08-04T03:41:55.119Z,15.85
2022-08-04T03:54:53.691Z,20.10
2022-08-04T04:12:12.406Z,23.58
2022-08-04T04:18:56.465Z,24.38
2022-08-04T04:28:54.647Z,18.85
2022-08-04T04:32:04.207Z,25.95
2022-08-04T04:35:08.940Z,29.45
2022-08-04T04:38:13.916Z,25.17
2022-08-04T04:41:04.156Z,26.35
2022-08-04T04:43:55.973Z,22.08
2022-08-04T04:46:58.803Z,17.58
2022-08-04T04:50:10.732Z,15.25
2022-08-04T04:53:07.432Z,17.88
2022-08-04T04:55:52.153Z,16.20
2022-08-04T04:58:27.175Z,19.80
2022-08-04T05:01:34.663Z,15.35
2022-08-04T05:04:48.774Z,20.45
2022-08-04T05:07:36.776Z,15.60
2022-08-04T05:10:15.072Z,21.30
2022-08-04T05:14:38.770Z,12.23
2022-08-04T05:16:18.170Z,13.40
2022-08-04T05:18:56.280Z,15.75
2022-08-04T05:21:40.174Z,12.85
2022-08-04T05:24:10.915Z,12.45
2022-08-04T05:26:45.066Z,12.95
2022-08-04T05:29:24.142Z,14.15
2022-08-04T05:32:01.774Z,10.55
2022-08-04T05:34:34.196Z,19.15
2022-08-04T05:37:08.197Z,14.23
2022-08-04T05:39:54.909Z,9.25
2022-08-04T05:42:23.433Z,10.93
2022-08-04T05:44:51.450Z,16.45
2022-08-04T05:47:21.763Z,14.00
2022-08-04T05:50:01.164Z,26.33
2022-08-04T05:52:32.792Z,11.43
2022-08-04T05:55:01.864Z,12.65
2022-08-04T05:57:32.267Z,12.60
2022-08-04T06:00:10.520Z,10.57
2022-08-04T06:02:50.326Z,10.20
2022-08-04T06:05:18.579Z,9.85
2022-08-04T06:08:12.139Z,10.60
2022-08-04T06:10:37.828Z,8.95
2022-08-04T06:13:10.767Z,10.75
2022-08-04T06:16:05.860Z,13.27
2022-08-04T06:19:58.656Z,7.05
2022-08-04T06:21:49.415Z,5.65
2022-08-04T06:24:26.860Z,7.18
2022-08-04T06:26:59.114Z,10.45
2022-08-04T06:29:37.164Z,10.05
2022-08-04T06:32:28.760Z,5.63
2022-08-04T06:35:04.538Z,13.60
2022-08-04T06:37:41.806Z,9.30
2022-08-04T06:40:31.597Z,4.85
2022-08-04T06:43:03.854Z,4.80
2022-08-04T06:45:35.142Z,6.80
2022-08-04T06:48:05.964Z,16.95
2022-08-04T06:51:27.496Z,7.68
2022-08-04T06:53:24.471Z,8.52
2022-08-04T06:55:52.757Z,5.93
2022-08-04T06:58:22.015Z,8.05
2022-08-04T07:00:50.468Z,9.70
2022-08-04T07:03:19.372Z,8.63
2022-08-04T07:05:51.616Z,10.90
2022-08-04T07:08:20.011Z,7.55
2022-08-04T07:10:47.638Z,6.78
2022-08-04T07:13:15.995Z,5.20
2022-08-04T07:15:46.059Z,10.95
2022-08-04T07:18:13.455Z,9.68
2022-08-04T07:20:46.373Z,10.77
2022-08-04T07:23:24.146Z,6.47
2022-08-04T07:25:59.671Z,10.50
2022-08-04T07:28:40.851Z,7.60
2022-08-04T07:31:16.682Z,6.35
2022-08-04T07:34:16.614Z,5.43
2022-08-04T07:36:50.657Z,6.37
2022-08-04T07:39:27.690Z,8.15
2022-08-04T07:41:58.839Z,7.63
2022-08-04T07:44:26.280Z,5.32
2022-08-04T07:46:53.810Z,5.18
2022-08-04T07:49:54.845Z,5.03
2022-08-04T07:52:09.372Z,6.72
2022-08-04T07:54:36.984Z,8.20
2022-08-04T07:57:04.243Z,6.85
2022-08-04T07:59:32.899Z,8.00
2022-08-04T08:02:01.499Z,8.32
2022-08-04T08:04:29.264Z,8.85
2022-08-04T08:06:58.590Z,8.63
2022-08-04T08:12:38.494Z,7.57
2022-08-04T08:14:41.484Z,15.70
2022-08-04T08:17:08.547Z,17.25
2022-08-04T08:19:36.598Z,7.93
2022-08-04T08:22:04.958Z,5.53
2022-08-04T08:24:36.222Z,4.78
2022-08-04T08:27:05.172Z,5.70
2022-08-04T08:29:35.121Z,6.63
2022-08-04T08:32:10.494Z,13.35
2022-08-04T08:34:38.943Z,6.93
2022-08-04T08:37:30.441Z,5.88
2022-08-04T08:40:40.768Z,7.40
2022-08-04T08:44:04.802Z,5.95
2022-08-04T08:46:24.720Z,13.80
2022-08-04T08:50:01.665Z,9.68
2022-08-04T08:52:16.638Z,10.88
2022-08-04T08:55:15.430Z,9.05
2022-08-04T08:58:00.887Z,11.13
2022-08-04T09:00:51.329Z,10.13
2022-08-04T09:03:48.941Z,5.55
2022-08-04T09:06:41.012Z,9.88
2022-08-04T09:09:10.913Z,7.43
2022-08-04T09:11:56.338Z,5.70
2022-08-04T09:14:47.654Z,6.18
2022-08-04T09:17:30.359Z,10.50
2022-08-04T09:20:08.206Z,6.55
2022-08-04T09:23:12.909Z,7.43
2022-08-04T09:25:48.544Z,9.00
2022-08-04T09:28:52.527Z,10.05
2022-08-04T09:31:17.483Z,10.10
2022-08-04T09:34:10.524Z,9.75
2022-08-04T09:36:56.832Z,9.88
2022-08-04T09:39:36.306Z,6.45
2022-08-04T09:42:25.890Z,48.33
2022-08-04T09:45:06.377Z,12.60
2022-08-04T09:47:46.933Z,12.00
2022-08-04T09:50:17.066Z,7.28
2022-08-04T09:52:46.917Z,7.10
2022-08-04T09:55:54.524Z,10.57
2022-08-04T09:58:28.620Z,11.45
2022-08-04T10:01:05.953Z,9.07
2022-08-04T10:03:38.720Z,13.82
2022-08-04T10:06:36.869Z,10.77
2022-08-04T10:09:28.833Z,15.32
2022-08-04T10:12:01.599Z,10.23
2022-08-04T10:14:49.228Z,8.73
2022-08-04T10:17:31.030Z,10.27
2022-08-04T10:20:44.402Z,9.98
2022-08-04T10:23:56.214Z,7.90
2022-08-04T10:26:43.817Z,7.60
2022-08-04T10:29:17.552Z,7.53
2022-08-04T10:31:54.202Z,7.55
2022-08-04T10:34:24.835Z,7.30
2022-08-04T10:36:59.305Z,11.07
2022-08-04T10:39:42.950Z,7.45
2022-08-04T10:42:27.537Z,8.07
2022-08-04T10:44:58.261Z,9.30
2022-08-04T10:47:34.058Z,7.85
2022-08-04T10:50:04.801Z,7.75
2022-08-04T10:52:42.519Z,7.88
2022-08-04T10:55:18.848Z,10.65
2022-08-04T10:58:09.793Z,8.82
2022-08-04T11:00:41.493Z,7.72
2022-08-04T11:03:19.413Z,7.95
2022-08-04T11:05:56.589Z,7.07
2022-08-04T11:08:37.104Z,8.68
2022-08-04T11:11:56.854Z,7.95
2022-08-04T11:14:33.622Z,10.65
2022-08-04T11:17:08.549Z,12.32
2022-08-04T11:20:33.942Z,9.82
2022-08-04T11:23:24.079Z,10.68
2022-08-04T11:26:15.647Z,8.00
2022-08-04T11:29:19.871Z,10.07
2022-08-04T11:31:52.110Z,9.98
2022-08-04T11:34:27.558Z,10.95
2022-08-04T11:37:04.675Z,11.82
2022-08-04T11:39:53.054Z,8.20
2022-08-04T11:42:38.434Z,8.20
2022-08-04T11:45:07.370Z,8.50
2022-08-04T11:47:53.784Z,8.93
2022-08-04T11:50:39.256Z,10.07
2022-08-04T11:53:07.856Z,7.10
2022-08-04T11:56:07.098Z,7.32
2022-08-04T11:58:24.827Z,7.90
2022-08-04T12:01:30.599Z,9.57
2022-08-04T12:04:03.853Z,9.77
2022-08-04T12:07:04.667Z,7.63
2022-08-04T12:09:47.499Z,8.77
2022-08-04T12:12:27.465Z,7.80
2022-08-04T12:15:15.404Z,11.88
2022-08-04T12:17:54.602Z,14.93
2022-08-04T12:20:38.232Z,7.88
2022-08-04T12:23:16.116Z,28.77
2022-08-04T12:25:47.469Z,12.93
2022-08-04T12:29:06.883Z,9.15
2022-08-04T12:31:26.692Z,10.07
2022-08-04T12:34:12.201Z,14.48
2022-08-04T12:36:59.113Z,8.73
2022-08-04T12:39:27.689Z,10.50
2022-08-04T12:42:13.848Z,13.77
2022-08-04T12:44:45.481Z,14.05
2022-08-04T12:47:27.632Z,9.02
2022-08-04T12:50:02.407Z,10.60
2022-08-04T12:55:30.824Z,9.45
2022-08-04T12:57:58.878Z,11.00
2022-08-04T13:00:41.164Z,9.97
2022-08-04T13:03:12.612Z,9.45
2022-08-04T13:05:42.708Z,9.88
2022-08-04T13:08:11.835Z,10.88
2022-08-04T13:10:46.515Z,11.57
2022-08-04T13:13:21.989Z,9.68
2022-08-04T13:16:01.233Z,12.52
2022-08-04T13:18:32.132Z,10.43
2022-08-04T13:21:21.134Z,9.80
2022-08-04T13:24:10.267Z,9.70
2022-08-04T13:26:57.145Z,15.25
2022-08-04T13:30:00.154Z,9.70
2022-08-04T13:32:22.499Z,10.20
2022-08-04T13:34:53.467Z,9.55
2022-08-04T13:37:26.923Z,9.70
2022-08-04T13:39:56.568Z,13.35
2022-08-04T13:42:26.098Z,9.88
2022-08-04T13:44:57.266Z,16.40
2022-08-04T13:47:31.624Z,9.13
2022-08-04T13:50:12.481Z,12.88
2022-08-04T13:52:59.199Z,9.30
2022-08-04T13:55:33.378Z,11.93
2022-08-04T13:58:14.543Z,10.18
2022-08-04T14:00:52.106Z,12.43
2022-08-04T14:03:32.625Z,9.40
2022-08-04T14:06:20.349Z,15.25
2022-08-04T14:08:52.321Z,9.18
2022-08-04T14:12:10.204Z,8.85
2022-08-04T14:14:20.043Z,12.05
2022-08-04T14:16:58.742Z,9.52
2022-08-04T14:22:30.720Z,14.52
2022-08-04T14:25:16.067Z,13.60
2022-08-04T14:27:57.609Z,9.40
2022-08-04T14:30:31.240Z,25.75
2022-08-04T14:34:01.209Z,13.00
2022-08-04T14:36:04.617Z,9.70
2022-08-04T14:38:50.198Z,10.40
2022-08-04T14:41:34.088Z,10.77
2022-08-04T14:44:19.272Z,12.95
2022-08-04T14:46:56.483Z,10.07
2022-08-04T14:52:53.651Z,12.18
2022-08-04T14:55:25.778Z,12.35
2022-08-04T15:10:26.217Z,11.10
2022-08-04T15:12:55.337Z,14.77
2022-08-04T15:15:36.597Z,15.23
2022-08-04T15:18:08.409Z,13.43
2022-08-04T15:20:36.018Z,13.63
2022-08-04T15:23:10.457Z,13.43
2022-08-04T15:25:51.853Z,17.65
2022-08-04T15:28:23.576Z,17.35
2022-08-04T15:30:53.856Z,11.45
2022-08-04T15:33:29.024Z,11.00
2022-08-04T15:36:15.828Z,13.02
2022-08-04T15:38:53.704Z,11.68
2022-08-04T15:41:54.805Z,18.00
2022-08-04T15:44:47.110Z,15.15
2022-08-04T15:47:16.005Z,18.60
2022-08-04T15:49:44.911Z,17.63
2022-08-04T15:52:16.608Z,12.83
2022-08-04T15:54:51.847Z,15.45
2022-08-04T15:58:02.101Z,14.13
2022-08-04T16:00:58.596Z,14.73
2022-08-04T16:03:58.312Z,16.65
2022-08-04T16:06:29.075Z,13.50
2022-08-04T16:09:05.129Z,14.35
2022-08-04T16:11:40.201Z,17.48
2022-08-04T16:14:11.258Z,16.58
2022-08-04T16:16:42.293Z,16.52
2022-08-04T16:19:55.119Z,13.88
2022-08-04T16:25:57.919Z,17.67
2022-08-04T16:28:41.500Z,16.02
2022-08-04T16:31:13.047Z,18.52
2022-08-04T16:33:43.735Z,14.45
2022-08-04T16:36:12.857Z,13.85
2022-08-04T16:39:05.225Z,16.38
2022-08-04T16:41:43.017Z,16.60
2022-08-04T16:44:59.310Z,18.23
2022-08-04T16:47:47.673Z,13.57
2022-08-04T16:50:16.252Z,17.10
2022-08-04T16:52:45.067Z,15.23
2022-08-04T16:55:15.017Z,18.33
2022-08-04T16:57:46.177Z,17.17
2022-08-04T17:00:13.635Z,21.40
2022-08-04T17:02:41.077Z,14.23
2022-08-04T17:05:37.952Z,14.05
2022-08-04T17:10:56.919Z,14.10
2022-08-04T17:16:39.970Z,11.07
2022-08-04T17:19:30.112Z,14.30
2022-08-04T17:22:58.466Z,12.50
2022-08-04T17:29:08.301Z,13.90
2022-08-04T17:31:48.212Z,12.73
2022-08-04T17:37:39.017Z,21.38
2022-08-04T17:40:22.690Z,12.57
2022-08-04T17:44:01.233Z,26.15
2022-08-04T17:52:15.440Z,22.48
2022-08-04T18:08:46.351Z,21.42
2022-08-04T18:11:22.122Z,23.38
2022-08-04T18:13:54.381Z,24.63
2022-08-04T18:16:24.758Z,29.88
2022-08-04T18:19:10.456Z,27.92
2022-08-04T18:21:46.180Z,30.83
2022-08-04T18:27:14.607Z,27.40
2022-08-04T18:30:14.673Z,30.33
2022-08-04T18:32:33.588Z,38.85
2022-08-04T18:38:06.857Z,62.42
2022-08-04T18:40:29.885Z,42.63
2022-08-04T18:43:03.645Z,37.58
2022-08-04T18:45:34.427Z,34.80
2022-08-04T18:48:14.906Z,26.45
2022-08-04T18:53:35.369Z,25.92
2022-08-04T18:56:06.141Z,25.23
2022-08-04T19:02:13.399Z,19.70
2022-08-04T19:04:49.627Z,50.83
2022-08-04T19:10:35.627Z,29.30
2022-08-04T19:13:03.051Z,24.20
2022-08-04T19:15:50.944Z,16.98
2022-08-04T19:18:18.679Z,26.23
2022-08-04T19:20:49.003Z,22.65
2022-08-04T19:24:30.066Z,24.55
2022-08-04T19:26:10.079Z,29.45
2022-08-04T19:28:47.402Z,45.08
2022-08-04T19:31:25.015Z,33.60
2022-08-04T19:34:04.653Z,33.17
2022-08-04T19:36:33.770Z,25.38
2022-08-04T19:39:04.523Z,26.55
2022-08-04T19:42:06.226Z,35.20
2022-08-04T19:44:29.924Z,24.73
2022-08-04T19:47:00.792Z,29.38
2022-08-04T19:50:04.562Z,36.42
2022-08-04T19:52:33.463Z,38.67
2022-08-04T19:55:09.815Z,48.17
2022-08-04T19:57:46.426Z,52.33
2022-08-04T20:00:32.853Z,36.78
2022-08-04T20:03:02.903Z,48.78
2022-08-04T20:05:34.221Z,43.72
2022-08-04T20:08:18.260Z,40.70
2022-08-04T20:10:51.744Z,39.95
2022-08-04T20:13:20.876Z,45.90
2022-08-04T20:22:52.017Z,35.47
2022-08-04T20:25:37.481Z,37.10
2022-08-04T20:30:57.854Z,31.73
2022-08-04T20:33:25.027Z,35.20
2022-08-04T20:36:05.001Z,37.67
2022-08-04T20:38:34.280Z,98.88
2022-08-04T20:41:02.431Z,72.10
2022-08-04T20:43:31.110Z,43.72
2022-08-04T20:49:57.283Z,33.05
2022-08-04T20:52:29.562Z,40.33
2022-08-04T20:54:56.617Z,31.33
2022-08-04T20:57:48.269Z,36.88
2022-08-04T21:00:13.153Z,33.78
2022-08-04T21:05:09.469Z,37.72
2022-08-04T21:07:43.825Z,36.35
2022-08-04T21:10:16.986Z,38.25
2022-08-04T21:12:49.644Z,39.83
2022-08-04T21:15:24.804Z,36.00
2022-08-04T21:17:59.163Z,36.80
2022-08-04T21:20:32.276Z,37.15
2022-08-04T21:23:02.235Z,33.60
2022-08-04T21:25:30.849Z,31.95
2022-08-04T21:27:58.830Z,41.28
2022-08-04T21:30:32.901Z,30.70
2022-08-04T21:33:19.497Z,38.03
2022-08-04T21:35:49.001Z,31.77
2022-08-04T21:38:28.037Z,32.08
2022-08-04T21:40:56.839Z,31.23
2022-08-04T21:46:12.561Z,32.22
2022-08-04T21:48:42.651Z,36.13
2022-08-04T21:51:57.977Z,38.40
2022-08-04T21:54:18.923Z,38.70
2022-08-04T21:56:50.764Z,41.55
2022-08-04T21:59:23.807Z,38.60
2022-08-04T22:02:00.359Z,49.25
2022-08-04T22:04:28.497Z,46.65
2022-08-04T22:06:55.658Z,43.40
2022-08-04T22:09:28.965Z,41.70
2022-08-04T22:12:04.679Z,36.90
2022-08-04T22:14:38.145Z,39.40
2022-08-04T22:19:57.179Z,43.50
2022-08-04T22:26:04.758Z,47.35
2022-08-04T22:28:32.888Z,44.17
2022-08-04T22:31:00.024Z,44.40
2022-08-04T22:33:54.686Z,42.42
2022-08-04T22:37:12.312Z,41.05
2022-08-04T22:39:56.283Z,45.30
2022-08-04T22:42:23.995Z,36.35
2022-08-04T22:44:51.179Z,37.10
2022-08-04T22:47:20.666Z,41.88
2022-08-04T22:50:27.493Z,46.97
2022-08-04T22:52:56.186Z,37.78
2022-08-04T22:55:23.678Z,38.17
2022-08-04T22:58:04.501Z,37.50
2022-08-04T23:00:32.488Z,39.97
2022-08-04T23:03:01.165Z,45.25
2022-08-04T23:08:48.394Z,48.00
2022-08-04T23:11:17.729Z,38.13
2022-08-04T23:13:44.901Z,41.60
2022-08-04T23:16:13.049Z,32.03
2022-08-04T23:18:42.390Z,38.50
2022-08-04T23:21:13.854Z,38.97
2022-08-04T23:23:47.694Z,36.42
2022-08-04T23:26:28.880Z,50.15
2022-08-04T23:28:56.814Z,40.05
2022-08-04T23:31:25.434Z,36.72
2022-08-04T23:34:08.388Z,35.30
2022-08-04T23:36:35.739Z,31.42
2022-08-04T23:39:06.462Z,39.33
2022-08-04T23:41:53.403Z,40.78
2022-08-04T23:44:25.265Z,54.92
2022-08-04T23:47:03.708Z,45.88
2022-08-04T23:49:43.492Z,32.00
2022-08-04T23:52:28.140Z,38.60
2022-08-04T23:55:01.001Z,36.97
2022-08-04T23:58:05.251Z,39.75
